createdAt,value
2018-03-19T00:01:16.664Z,67.70
2018-03-19T00:03:51.208Z,68.20
2018-03-19T00:06:25.803Z,67.60
2018-03-19T00:09:00.860Z,67.60
2018-03-19T00:11:36.039Z,68.20
2018-03-19T00:14:10.547Z,68.10
2018-03-19T00:16:44.995Z,68.60
2018-03-19T00:19:19.591Z,68.70
2018-03-19T00:21:54.144Z,68.70
2018-03-19T00:24:28.605Z,69.00
2018-03-19T00:27:03.082Z,68.70
2018-03-19T00:29:37.687Z,68.80
2018-03-19T00:32:12.025Z,68.80
2018-03-19T00:34:46.760Z,68.50
2018-03-19T00:37:21.308Z,68.70
2018-03-19T00:39:55.995Z,68.80
2018-03-19T00:42:30.272Z,68.80
2018-03-19T00:45:05.252Z,68.60
2018-03-19T00:47:39.923Z,68.70
2018-03-19T00:50:14.501Z,68.20
2018-03-19T00:52:49.036Z,68.40
2018-03-19T00:55:23.752Z,67.90
2018-03-19T00:57:58.190Z,67.70
2018-03-19T01:00:33.504Z,67.90
2018-03-19T01:03:07.848Z,67.90
2018-03-19T01:05:43.064Z,67.60
2018-03-19T01:08:17.525Z,67.30
2018-03-19T01:10:52.107Z,67.50
2018-03-19T01:13:27.243Z,66.90
2018-03-19T01:16:02.196Z,66.80
2018-03-19T01:18:36.667Z,67.30
2018-03-19T01:21:11.229Z,67.20
2018-03-19T01:23:46.464Z,67.20
2018-03-19T01:26:21.708Z,67.60
2018-03-19T01:28:56.142Z,67.20
2018-03-19T01:31:30.751Z,67.20
2018-03-19T01:34:05.052Z,67.20
2018-03-19T01:36:39.810Z,67.30
2018-03-19T01:39:14.358Z,67.30
2018-03-19T01:41:49.050Z,67.20
2018-03-19T01:44:23.566Z,67.10
2018-03-19T01:46:58.301Z,67.10
2018-03-19T01:49:32.691Z,67.20
2018-03-19T01:52:07.339Z,67.10
2018-03-19T01:54:42.529Z,67.60
2018-03-19T01:57:17.391Z,67.20
2018-03-19T01:59:51.923Z,67.10
2018-03-19T02:02:26.453Z,67.00
2018-03-19T02:05:00.906Z,66.90
2018-03-19T02:07:35.716Z,66.60
2018-03-19T02:10:10.160Z,67.50
2018-03-19T02:12:44.968Z,67.10
2018-03-19T02:15:19.387Z,67.10
2018-03-19T02:17:53.811Z,67.00
2018-03-19T02:20:29.140Z,67.00
2018-03-19T02:23:03.880Z,67.00
2018-03-19T02:25:38.889Z,66.90
2018-03-19T02:28:13.548Z,65.80
2018-03-19T02:30:48.417Z,66.00
2018-03-19T02:33:23.008Z,65.60
2018-03-19T02:35:57.523Z,65.60
2018-03-19T02:38:32.254Z,65.30
2018-03-19T02:41:06.701Z,65.60
2018-03-19T02:43:41.509Z,65.60
2018-03-19T02:46:16.628Z,64.80
2018-03-19T02:48:51.620Z,64.70
2018-03-19T02:51:26.133Z,65.00
2018-03-19T02:54:00.622Z,64.70
2018-03-19T02:56:35.201Z,64.60
2018-03-19T02:59:10.693Z,65.30
2018-03-19T03:01:46.081Z,65.20
2018-03-19T03:04:21.648Z,64.70
2018-03-19T03:06:56.304Z,64.60
2018-03-19T03:09:30.870Z,64.00
2018-03-19T03:12:05.157Z,64.10
2018-03-19T03:14:39.888Z,63.60
2018-03-19T03:17:14.328Z,63.10
2018-03-19T03:19:49.125Z,62.80
2018-03-19T03:22:24.702Z,62.80
2018-03-19T03:25:00.029Z,62.50
2018-03-19T03:27:35.164Z,62.40
2018-03-19T03:30:10.709Z,62.00
2018-03-19T03:32:45.225Z,62.00
2018-03-19T03:35:20.273Z,62.10
2018-03-19T03:37:54.757Z,62.10
2018-03-19T03:40:29.207Z,62.40
2018-03-19T03:43:03.812Z,62.10
2018-03-19T03:45:38.262Z,62.00
2018-03-19T03:48:12.671Z,62.00
2018-03-19T03:50:47.109Z,62.30
2018-03-19T03:53:22.437Z,63.00
2018-03-19T03:55:57.169Z,62.10
2018-03-19T03:58:31.597Z,62.30
2018-03-19T04:01:06.226Z,62.00
2018-03-19T04:03:40.572Z,63.00
2018-03-19T04:06:15.292Z,62.10
2018-03-19T04:08:49.725Z,62.90
2018-03-19T04:11:24.300Z,62.20
2018-03-19T04:13:59.961Z,62.60
2018-03-19T04:16:34.784Z,62.50
2018-03-19T04:19:09.141Z,62.50
2018-03-19T04:21:43.629Z,62.50
2018-03-19T04:24:19.002Z,62.90
2018-03-19T04:26:53.498Z,62.80
2018-03-19T04:29:27.899Z,62.70
2018-03-19T04:32:02.745Z,63.80
2018-03-19T04:34:37.141Z,62.80
2018-03-19T04:37:11.580Z,62.70
2018-03-19T04:39:47.231Z,62.40
2018-03-19T04:42:21.866Z,62.30
2018-03-19T04:44:56.293Z,62.50
2018-03-19T04:47:30.825Z,62.50
2018-03-19T04:50:06.018Z,62.90
2018-03-19T04:52:40.772Z,63.00
2018-03-19T04:55:15.052Z,63.40
2018-03-19T04:57:49.624Z,63.20
2018-03-19T05:00:24.637Z,63.40
2018-03-19T05:02:59.293Z,63.70
2018-03-19T05:05:33.825Z,63.20
2018-03-19T05:08:09.351Z,61.90
2018-03-19T05:10:44.488Z,61.90
2018-03-19T05:13:20.028Z,62.20
2018-03-19T05:15:54.481Z,62.20
2018-03-19T05:18:29.090Z,62.20
2018-03-19T05:21:03.551Z,62.20
2018-03-19T05:23:38.224Z,62.40
2018-03-19T05:26:13.752Z,62.40
2018-03-19T05:28:48.409Z,62.90
2018-03-19T05:31:23.373Z,61.90
2018-03-19T05:33:57.853Z,61.40
2018-03-19T05:36:32.261Z,61.80
2018-03-19T05:39:06.992Z,61.80
2018-03-19T05:41:41.528Z,62.30
2018-03-19T05:44:16.636Z,61.90
2018-03-19T05:46:51.933Z,62.20
2018-03-19T05:49:27.456Z,61.80
2018-03-19T05:52:01.896Z,61.70
2018-03-19T05:54:37.328Z,61.60
2018-03-19T05:57:11.625Z,61.50
2018-03-19T05:59:46.174Z,61.30
2018-03-19T06:02:20.645Z,61.30
2018-03-19T06:04:55.210Z,59.80
2018-03-19T06:07:29.924Z,58.40
2018-03-19T06:10:04.621Z,57.30
2018-03-19T06:12:38.909Z,54.30
2018-03-19T06:15:13.362Z,52.30
2018-03-19T06:17:47.800Z,51.70
2018-03-19T06:20:22.345Z,49.30
2018-03-19T06:22:56.825Z,47.20
2018-03-19T06:25:31.418Z,47.40
2018-03-19T06:28:05.938Z,46.10
2018-03-19T06:30:40.446Z,44.60
2018-03-19T06:33:15.041Z,44.00
2018-03-19T06:35:50.312Z,43.50
2018-03-19T06:38:24.649Z,43.50
2018-03-19T06:40:59.364Z,43.70
2018-03-19T06:43:34.165Z,41.40
2018-03-19T06:46:08.848Z,40.70
2018-03-19T06:48:43.158Z,42.50
2018-03-19T06:51:17.985Z,40.20
2018-03-19T06:53:53.422Z,38.90
2018-03-19T06:56:28.133Z,38.30
2018-03-19T06:59:02.860Z,39.20
2018-03-19T07:01:37.487Z,41.20
2018-03-19T07:04:12.074Z,38.10
2018-03-19T07:06:46.944Z,38.80
2018-03-19T07:09:21.385Z,37.90
2018-03-19T07:11:56.210Z,37.40
2018-03-19T07:14:32.275Z,37.40
2018-03-19T07:17:06.872Z,37.40
2018-03-19T07:19:42.137Z,36.90
2018-03-19T07:22:17.565Z,36.50
2018-03-19T07:24:52.720Z,36.40
2018-03-19T07:27:27.437Z,33.50
2018-03-19T07:30:02.018Z,34.20
2018-03-19T07:32:36.905Z,32.40
2018-03-19T07:35:11.855Z,31.40
2018-03-19T07:37:46.540Z,30.50
2018-03-19T07:40:21.138Z,31.20
2018-03-19T07:42:55.692Z,32.10
2018-03-19T07:45:30.150Z,33.80
2018-03-19T07:48:05.069Z,31.00
2018-03-19T07:50:39.580Z,32.90
2018-03-19T07:53:14.204Z,35.10
2018-03-19T07:55:48.632Z,34.50
2018-03-19T07:58:23.265Z,35.70
2018-03-19T08:00:57.574Z,37.00
2018-03-19T08:03:32.081Z,36.60
2018-03-19T08:06:06.412Z,38.60
2018-03-19T08:08:41.948Z,35.60
2018-03-19T08:11:16.927Z,34.20
2018-03-19T08:13:52.428Z,34.20
2018-03-19T08:16:26.932Z,34.10
2018-03-19T08:19:01.471Z,33.30
2018-03-19T08:21:35.792Z,32.30
2018-03-19T08:24:10.933Z,32.80
2018-03-19T08:26:45.472Z,36.20
2018-03-19T08:29:19.977Z,33.30
2018-03-19T08:31:54.511Z,32.00
2018-03-19T08:34:30.058Z,31.20
2018-03-19T08:37:05.187Z,30.40
2018-03-19T08:39:39.741Z,30.40
2018-03-19T08:42:14.212Z,30.00
2018-03-19T08:44:48.756Z,31.60
2018-03-19T08:47:23.251Z,30.90
2018-03-19T08:49:58.011Z,29.90
2018-03-19T08:52:33.405Z,29.30
2018-03-19T08:55:08.922Z,29.20
2018-03-19T08:57:43.185Z,29.20
2018-03-19T09:00:18.612Z,28.60
2018-03-19T09:02:53.044Z,28.90
2018-03-19T09:05:27.603Z,29.00
2018-03-19T09:08:02.316Z,28.50
2018-03-19T09:10:36.841Z,28.30
2018-03-19T09:13:11.350Z,27.80
2018-03-19T09:15:46.520Z,27.80
2018-03-19T09:18:21.057Z,28.80
2018-03-19T09:20:55.772Z,28.70
2018-03-19T09:23:30.520Z,29.20
2018-03-19T09:26:05.028Z,28.80
2018-03-19T09:28:39.668Z,28.80
2018-03-19T09:31:14.303Z,28.50
2018-03-19T09:33:48.677Z,29.60
2018-03-19T09:36:23.328Z,28.70
2018-03-19T09:38:57.730Z,28.50
2018-03-19T09:41:32.363Z,29.00
2018-03-19T09:44:07.492Z,28.20
2018-03-19T09:46:42.237Z,27.70
2018-03-19T09:49:16.669Z,27.50
2018-03-19T09:51:51.289Z,27.30
2018-03-19T09:54:25.755Z,27.80
2018-03-19T09:57:00.352Z,26.50
2018-03-19T09:59:34.667Z,27.40
2018-03-19T10:02:10.193Z,26.30
2018-03-19T10:04:44.817Z,26.30
2018-03-19T10:07:19.649Z,27.10
2018-03-19T10:09:54.114Z,26.20
2018-03-19T10:12:28.696Z,27.30
2018-03-19T10:15:03.241Z,26.20
2018-03-19T10:17:37.946Z,27.50
2018-03-19T10:20:12.496Z,26.20
2018-03-19T10:22:47.304Z,25.70
2018-03-19T10:25:21.583Z,24.80
2018-03-19T10:27:56.290Z,24.50
2018-03-19T10:30:30.752Z,25.40
2018-03-19T10:33:05.389Z,25.50
2018-03-19T10:35:40.524Z,24.50
2018-03-19T10:38:15.256Z,24.50
2018-03-19T10:40:49.644Z,24.00
2018-03-19T10:43:24.343Z,23.90
2018-03-19T10:45:58.916Z,24.20
2018-03-19T10:48:33.452Z,23.80
2018-03-19T10:51:07.854Z,25.90
2018-03-19T10:53:42.396Z,23.30
2018-03-19T10:56:16.840Z,23.80
2018-03-19T10:58:52.078Z,22.60
2018-03-19T11:01:33.225Z,23.20
2018-03-19T11:04:14.428Z,23.20
2018-03-19T11:06:58.568Z,23.50
2018-03-19T11:09:33.140Z,22.80
2018-03-19T11:12:07.735Z,25.10
2018-03-19T11:14:42.337Z,22.90
2018-03-19T11:17:16.633Z,22.80
2018-03-19T11:19:51.994Z,23.30
2018-03-19T11:22:26.332Z,23.30
2018-03-19T11:25:01.668Z,21.80
2018-03-19T11:27:36.208Z,21.70
2018-03-19T11:30:10.913Z,20.80
2018-03-19T11:32:45.360Z,21.00
2018-03-19T11:35:19.879Z,21.20
2018-03-19T11:37:54.256Z,21.40
2018-03-19T11:40:28.786Z,22.30
2018-03-19T11:43:03.978Z,23.00
2018-03-19T11:45:38.476Z,22.60
2018-03-19T11:48:12.894Z,22.20
2018-03-19T11:50:47.927Z,21.80
2018-03-19T11:53:22.385Z,22.80
2018-03-19T11:55:57.191Z,23.80
2018-03-19T11:58:31.705Z,22.30
2018-03-19T12:01:06.625Z,22.10
2018-03-19T12:03:41.750Z,21.50
2018-03-19T12:06:17.949Z,21.30
2018-03-19T12:08:52.948Z,21.10
2018-03-19T12:11:27.789Z,21.80
2018-03-19T12:14:02.220Z,24.20
2018-03-19T12:16:36.841Z,22.30
2018-03-19T12:19:11.290Z,23.00
2018-03-19T12:21:45.907Z,23.40
2018-03-19T12:24:20.313Z,22.80
2018-03-19T12:26:54.937Z,21.90
2018-03-19T12:29:30.282Z,21.70
2018-03-19T12:32:05.815Z,21.70
2018-03-19T12:34:40.251Z,21.80
2018-03-19T12:37:15.680Z,22.00
2018-03-19T12:39:50.137Z,22.00
2018-03-19T12:42:24.761Z,23.30
2018-03-19T12:44:59.534Z,22.80
2018-03-19T12:47:35.020Z,22.70
2018-03-19T12:50:09.313Z,22.70
2018-03-19T12:52:43.851Z,22.60
2018-03-19T12:55:18.121Z,22.70
2018-03-19T12:57:54.532Z,21.80
2018-03-19T13:00:29.488Z,21.80
2018-03-19T13:03:04.398Z,21.30
2018-03-19T13:05:38.982Z,21.10
2018-03-19T13:08:13.664Z,22.10
2018-03-19T13:10:48.047Z,21.70
2018-03-19T13:13:22.722Z,21.70
2018-03-19T13:15:57.260Z,21.80
2018-03-19T13:18:31.946Z,21.90
2018-03-19T13:21:06.478Z,21.90
2018-03-19T13:23:40.996Z,21.40
2018-03-19T13:26:15.390Z,21.90
2018-03-19T13:28:50.040Z,21.80
2018-03-19T13:31:24.460Z,21.20
2018-03-19T13:33:59.099Z,21.20
2018-03-19T13:36:34.982Z,21.80
2018-03-19T13:39:09.572Z,21.20
2018-03-19T13:41:44.684Z,21.50
2018-03-19T13:44:19.233Z,20.60
2018-03-19T13:46:53.773Z,23.00
2018-03-19T13:49:29.721Z,22.00
2018-03-19T13:52:05.055Z,21.70
2018-03-19T13:54:39.776Z,21.60
2018-03-19T13:57:14.327Z,21.80
2018-03-19T13:59:49.034Z,22.00
2018-03-19T14:02:23.469Z,22.20
2018-03-19T14:04:58.080Z,20.80
2018-03-19T14:07:32.594Z,21.10
2018-03-19T14:10:07.388Z,21.70
2018-03-19T14:12:41.816Z,21.80
2018-03-19T14:15:16.711Z,21.10
2018-03-19T14:17:51.233Z,21.70
2018-03-19T14:20:27.421Z,21.00
2018-03-19T14:23:01.823Z,21.00
2018-03-19T14:25:36.735Z,21.70
2018-03-19T14:28:11.613Z,22.00
2018-03-19T14:30:47.001Z,21.50
2018-03-19T14:33:21.538Z,21.50
2018-03-19T14:35:56.105Z,22.30
2018-03-19T14:38:30.767Z,22.10
2018-03-19T14:41:05.295Z,23.00
2018-03-19T14:43:39.871Z,21.70
2018-03-19T14:46:14.467Z,21.20
2018-03-19T14:48:49.033Z,22.10
2018-03-19T14:51:23.694Z,23.60
2018-03-19T14:53:58.141Z,22.60
2018-03-19T14:56:32.748Z,22.90
2018-03-19T14:59:07.317Z,22.20
2018-03-19T15:01:41.806Z,22.60
2018-03-19T15:04:16.349Z,22.80
2018-03-19T15:06:51.030Z,23.40
2018-03-19T15:09:25.589Z,23.20
2018-03-19T15:12:00.799Z,22.40
2018-03-19T15:14:35.334Z,22.90
2018-03-19T15:17:10.301Z,23.10
2018-03-19T15:19:45.415Z,22.10
2018-03-19T15:22:20.370Z,23.10
2018-03-19T15:24:54.673Z,21.80
2018-03-19T15:27:29.900Z,21.50
2018-03-19T15:30:04.764Z,21.50
2018-03-19T15:32:39.537Z,21.60
2018-03-19T15:35:14.089Z,20.90
2018-03-19T15:37:49.429Z,21.30
2018-03-19T15:40:24.020Z,21.50
2018-03-19T15:42:58.602Z,22.80
2018-03-19T15:45:33.986Z,21.60
2018-03-19T15:48:08.539Z,21.90
2018-03-19T15:50:43.087Z,22.70
2018-03-19T15:53:17.580Z,22.30
2018-03-19T15:55:51.980Z,22.60
2018-03-19T15:58:26.628Z,22.40
2018-03-19T16:01:01.004Z,22.20
2018-03-19T16:03:35.784Z,23.80
2018-03-19T16:06:10.168Z,23.10
2018-03-19T16:08:44.828Z,23.00
2018-03-19T16:11:19.095Z,23.40
2018-03-19T16:13:53.790Z,24.00
2018-03-19T16:16:28.392Z,23.30
2018-03-19T16:19:03.227Z,23.20
2018-03-19T16:21:37.634Z,23.40
2018-03-19T16:24:12.305Z,25.00
2018-03-19T16:26:47.609Z,24.90
2018-03-19T16:29:22.336Z,24.90
2018-03-19T16:31:56.841Z,25.10
2018-03-19T16:34:31.388Z,25.10
2018-03-19T16:37:05.900Z,26.10
2018-03-19T16:39:40.542Z,26.10
2018-03-19T16:42:15.889Z,26.10
2018-03-19T16:44:50.610Z,27.00
2018-03-19T16:47:25.124Z,26.00
2018-03-19T16:49:59.780Z,26.90
2018-03-19T16:52:34.304Z,27.60
2018-03-19T16:55:09.740Z,27.40
2018-03-19T16:57:45.065Z,27.60
2018-03-19T17:00:19.613Z,27.60
2018-03-19T17:02:54.966Z,27.60
2018-03-19T17:05:29.669Z,27.20
2018-03-19T17:08:04.160Z,27.30
2018-03-19T17:10:38.709Z,27.30
2018-03-19T17:13:13.884Z,27.60
2018-03-19T17:15:48.310Z,27.30
2018-03-19T17:18:22.697Z,27.70
2018-03-19T17:20:57.417Z,28.20
2018-03-19T17:23:31.858Z,27.80
2018-03-19T17:26:06.470Z,29.20
2018-03-19T17:28:40.837Z,28.80
2018-03-19T17:31:15.608Z,31.50
2018-03-19T17:33:50.180Z,29.70
2018-03-19T17:36:24.660Z,29.20
2018-03-19T17:38:59.133Z,29.10
2018-03-19T17:41:34.036Z,29.70
2018-03-19T17:44:08.384Z,29.70
2018-03-19T17:46:42.967Z,30.60
2018-03-19T17:49:17.335Z,30.60
2018-03-19T17:51:52.004Z,32.40
2018-03-19T17:54:26.490Z,33.90
2018-03-19T17:57:01.254Z,32.30
2018-03-19T17:59:36.496Z,33.40
2018-03-19T18:02:11.018Z,33.30
2018-03-19T18:04:46.326Z,33.40
2018-03-19T18:07:21.130Z,34.40
2018-03-19T18:09:55.561Z,33.90
2018-03-19T18:12:30.648Z,33.50
2018-03-19T18:15:05.376Z,35.00
2018-03-19T18:17:39.892Z,36.10
2018-03-19T18:20:14.443Z,38.60
2018-03-19T18:22:48.948Z,40.50
2018-03-19T18:25:23.477Z,41.70
2018-03-19T18:27:58.101Z,43.10
2018-03-19T18:30:32.617Z,43.30
2018-03-19T18:33:07.228Z,44.20
2018-03-19T18:35:41.621Z,44.40
2018-03-19T18:38:16.400Z,45.40
2018-03-19T18:40:51.759Z,46.30
2018-03-19T18:43:27.285Z,46.30
2018-03-19T18:46:03.390Z,47.80
2018-03-19T18:48:37.969Z,47.90
2018-03-19T18:51:13.301Z,47.60
2018-03-19T18:53:47.843Z,47.60
2018-03-19T18:56:22.216Z,48.80
2018-03-19T18:58:56.781Z,48.00
2018-03-19T19:01:31.540Z,48.10
2018-03-19T19:04:06.236Z,48.70
2018-03-19T19:06:40.696Z,48.50
2018-03-19T19:09:15.296Z,49.00
2018-03-19T19:11:49.933Z,49.30
2018-03-19T19:14:24.541Z,49.30
2018-03-19T19:16:59.046Z,49.30
2018-03-19T19:19:34.012Z,49.50
2018-03-19T19:22:08.597Z,51.00
2018-03-19T19:24:43.028Z,50.70
2018-03-19T19:27:17.536Z,51.00
2018-03-19T19:29:52.923Z,49.40
2018-03-19T19:32:27.468Z,49.40
2018-03-19T19:35:02.060Z,49.30
2018-03-19T19:37:36.310Z,47.90
2018-03-19T19:40:10.846Z,47.50
2018-03-19T19:42:46.127Z,47.60
2018-03-19T19:45:20.757Z,47.20
2018-03-19T19:47:55.614Z,47.70
2018-03-19T19:50:30.238Z,47.80
2018-03-19T19:53:05.589Z,47.80
2018-03-19T19:55:41.357Z,47.80
2018-03-19T19:58:15.913Z,47.60
2018-03-19T20:00:50.546Z,47.80
2018-03-19T20:03:25.062Z,47.90
2018-03-19T20:05:59.609Z,48.50
2018-03-19T20:08:34.972Z,50.20
2018-03-19T20:11:11.929Z,48.50
2018-03-19T20:13:46.204Z,48.50
2018-03-19T20:16:20.895Z,49.30
2018-03-19T20:18:55.400Z,47.90
2018-03-19T20:21:30.972Z,46.00
2018-03-19T20:24:05.280Z,46.10
2018-03-19T20:26:39.820Z,45.30
2018-03-19T20:29:15.151Z,42.60
2018-03-19T20:31:49.857Z,42.60
2018-03-19T20:34:25.162Z,44.00
2018-03-19T20:37:00.024Z,42.70
2018-03-19T20:39:34.487Z,42.10
2018-03-19T20:42:09.993Z,40.50
2018-03-19T20:44:44.548Z,40.40
2018-03-19T20:47:19.243Z,39.80
2018-03-19T20:49:54.680Z,40.40
2018-03-19T20:52:29.324Z,40.30
2018-03-19T20:55:03.940Z,40.50
2018-03-19T20:57:38.577Z,39.50
2018-03-19T21:00:13.936Z,39.60
2018-03-19T21:02:48.637Z,39.70
2018-03-19T21:05:23.973Z,39.00
2018-03-19T21:07:58.710Z,38.90
2018-03-19T21:10:33.156Z,39.10
2018-03-19T21:13:07.784Z,39.20
2018-03-19T21:15:42.926Z,39.90
2018-03-19T21:18:17.631Z,40.30
2018-03-19T21:20:52.974Z,42.80
2018-03-19T21:23:27.484Z,42.80
2018-03-19T21:26:01.802Z,43.60
2018-03-19T21:28:37.605Z,48.40
2018-03-19T21:31:12.809Z,51.20
2018-03-19T21:33:47.428Z,51.30
2018-03-19T21:36:21.967Z,54.70
2018-03-19T21:38:56.680Z,58.60
2018-03-19T21:41:31.238Z,60.00
2018-03-19T21:44:05.777Z,61.00
2018-03-19T21:46:41.090Z,61.00
2018-03-19T21:49:15.744Z,60.90
2018-03-19T21:51:50.195Z,60.90
2018-03-19T21:54:25.479Z,60.90
2018-03-19T21:56:59.856Z,60.80
2018-03-19T21:59:34.511Z,60.70
2018-03-19T22:02:10.113Z,61.00
2018-03-19T22:04:44.787Z,61.20
2018-03-19T22:07:19.078Z,61.90
2018-03-19T22:09:53.825Z,62.30
2018-03-19T22:12:28.580Z,62.90
2018-03-19T22:15:03.294Z,62.40
2018-03-19T22:17:37.836Z,63.20
2018-03-19T22:20:13.964Z,63.60
2018-03-19T22:22:48.438Z,63.60
2018-03-19T22:25:22.848Z,63.90
2018-03-19T22:27:57.845Z,64.20
2018-03-19T22:30:32.394Z,64.70
2018-03-19T22:33:06.673Z,65.90
2018-03-19T22:35:41.263Z,67.10
2018-03-19T22:38:15.729Z,66.40
2018-03-19T22:40:50.361Z,67.20
2018-03-19T22:43:24.877Z,68.10
2018-03-19T22:46:00.840Z,70.20
2018-03-19T22:48:35.993Z,71.90
2018-03-19T22:51:10.509Z,71.40
2018-03-19T22:53:44.900Z,71.80
2018-03-19T22:56:19.481Z,72.50
2018-03-19T22:58:53.792Z,73.30
2018-03-19T23:01:28.241Z,73.90
2018-03-19T23:04:02.700Z,74.90
2018-03-19T23:06:37.432Z,75.80
2018-03-19T23:09:11.740Z,76.70
2018-03-19T23:11:47.102Z,77.20
2018-03-19T23:14:21.386Z,78.00
2018-03-19T23:16:55.949Z,78.40
2018-03-19T23:19:30.561Z,78.90
2018-03-19T23:22:05.184Z,79.20
2018-03-19T23:24:39.593Z,79.20
2018-03-19T23:27:14.245Z,79.90
2018-03-19T23:29:48.736Z,80.80
2018-03-19T23:32:23.502Z,81.80
2018-03-19T23:34:58.072Z,81.90
2018-03-19T23:37:32.532Z,82.40
2018-03-19T23:40:06.980Z,83.70
2018-03-19T23:42:41.543Z,82.90
2018-03-19T23:45:16.094Z,83.30
2018-03-19T23:47:50.624Z,83.20
2018-03-19T23:50:25.057Z,82.90
2018-03-19T23:53:00.283Z,83.10
2018-03-19T23:55:34.654Z,83.70
2018-03-19T23:58:09.350Z,83.30
